Address 0x2eeaf83f24d678ab3e1ef89a25600446689f9220

Overview

Balance:
0.23604029668167512 AVAX

AVAX Value:
$4.55 (@ $19.27/AVAX)

Token:
Txn Hash Method
Block
From
To
Value [Txn Fee]
0x7c9c19bf65cf058ab2efb8aa63ccb38dfb4dc24383cea5e06637e7e8560ad69a0x0ee474c4170169832022-07-07 13:22:2520 mins ago0x2eeaf83f24d678ab3e1ef89a25600446689f9220OUT 0x58b699642f2a4b91dd10800ef852427b719db1f00 AVAX0.006778044 26
0x0e30fc0c83077bef67cc62f1774923d3af5b52d19fc51c92351bee479223f61f0x0ee474c4170119422022-07-07 10:33:323 hrs 9 mins ago0x2eeaf83f24d678ab3e1ef89a25600446689f9220OUT 0x58b699642f2a4b91dd10800ef852427b719db1f00 AVAX0.007595562 26
0x42c0c609e84fb89ed48c4c8a368b89f0f4295e87756fe2f74718294c6a578ba00xc9c57959170111762022-07-07 10:07:453 hrs 34 mins ago0x2eeaf83f24d678ab3e1ef89a25600446689f9220OUT 0x58b699642f2a4b91dd10800ef852427b719db1f00 AVAX0.002021838 26
0x98c398fd0a74b952f147f5858f6a8d68792500140c132c603a140abb319a39f10xc9c57959170038672022-07-07 6:02:467 hrs 39 mins ago0x2eeaf83f24d678ab3e1ef89a25600446689f9220OUT 0x58b699642f2a4b91dd10800ef852427b719db1f00 AVAX0.004947774 26
0xe1b71586d43a12eb4900483c83601402e4faac1caab70fb6a8d23afb80d402d80xc9c57959169965772022-07-07 1:58:3411 hrs 43 mins ago0x2eeaf83f24d678ab3e1ef89a25600446689f9220OUT 0x58b699642f2a4b91dd10800ef852427b719db1f00 AVAX0.007359378 26
0x5b2411f3767427646fdf9ecb01f3e4ca04e7185a51080669865ea407344d41fe0x0ee474c4169907812022-07-06 22:44:5114 hrs 57 mins ago0x2eeaf83f24d678ab3e1ef89a25600446689f9220OUT 0x58b699642f2a4b91dd10800ef852427b719db1f00 AVAX0.007595874 26
0x1516f22af4717b397e5d370e6d1a55d6be707889583eac013220d8ce033fd51b0xc9c57959169892332022-07-06 21:53:4815 hrs 48 mins ago0x2eeaf83f24d678ab3e1ef89a25600446689f9220OUT 0x58b699642f2a4b91dd10800ef852427b719db1f00 AVAX0.008072298 26
0x934d5bb3214fb94c7ecbe21119d257d993e2923c44f85af1e99ba4e61e73b5b50x0ee474c4169890772022-07-06 21:48:3615 hrs 53 mins ago0x2eeaf83f24d678ab3e1ef89a25600446689f9220OUT 0x58b699642f2a4b91dd10800ef852427b719db1f00 AVAX0.004645836 26
0xe2909499f252f2e9061060950dbaa24886b728698110862e6cb73d4b64b5be830x0ee474c4169879992022-07-06 21:12:3616 hrs 29 mins ago0x2eeaf83f24d678ab3e1ef89a25600446689f9220OUT 0x58b699642f2a4b91dd10800ef852427b719db1f00 AVAX0.004646044 26
0x7d115e0e1a3ee453f5088811fb6454d62d49c4d4d709a2443cc3671bf0e9ead10x0ee474c4169878422022-07-06 21:07:2316 hrs 35 mins ago0x2eeaf83f24d678ab3e1ef89a25600446689f9220OUT 0x58b699642f2a4b91dd10800ef852427b719db1f00 AVAX0.00759525 26
0xdaad164c7ff1a7987250cacdd9ff74c1e8710e65183c5682e4eb217263ec61f70x0ee474c4169858582022-07-06 20:01:0417 hrs 41 mins ago0x2eeaf83f24d678ab3e1ef89a25600446689f9220OUT 0x58b699642f2a4b91dd10800ef852427b719db1f00 AVAX0.003298282 26
0x566e545cfe6a381296e87119891245ddaeaf8ce9ad54ed9c309bf4b6dde749bd0xc9c57959169820252022-07-06 17:53:2719 hrs 49 mins ago0x2eeaf83f24d678ab3e1ef89a25600446689f9220OUT 0x58b699642f2a4b91dd10800ef852427b719db1f00 AVAX0.00246896 26
0xeb0f9cb589f33ceb7f8edfe58148977c1f8c386781fea7068e7bfc744c59bb540x0ee474c4169814132022-07-06 17:32:5720 hrs 9 mins ago0x2eeaf83f24d678ab3e1ef89a25600446689f9220OUT 0x58b699642f2a4b91dd10800ef852427b719db1f00 AVAX0.00665262 26
0xf0892d87082a572fe945bc8df5574baa74d6a06c103f7d1d4fab13499fb60a490x0ee474c4169806532022-07-06 17:07:3020 hrs 35 mins ago0x2eeaf83f24d678ab3e1ef89a25600446689f9220OUT 0x58b699642f2a4b91dd10800ef852427b719db1f00 AVAX0.007596394 26
0xc514325c71a5ca3230b19b2bec98b90c0c2ae0b238de05e55d920cf8407c44c50xc9c57959169747132022-07-06 13:48:2423 hrs 54 mins ago0x2eeaf83f24d678ab3e1ef89a25600446689f9220OUT 0x58b699642f2a4b91dd10800ef852427b719db1f00 AVAX0.00202215 26
0xef985c7113c6744c9a6eb2a77dc6975cc24a9aba36e3969cd5bc01ac9826df660x0ee474c4169742452022-07-06 13:32:511 day 9 mins ago0x2eeaf83f24d678ab3e1ef89a25600446689f9220OUT 0x58b699642f2a4b91dd10800ef852427b719db1f00 AVAX0.008200129644 28.066391864
0xc03b9ba047b7893af1e6b9ea05eb5756dd1a59393ae94d35a8c34931978d8c3b0x0ee474c4169728722022-07-06 12:46:551 day 55 mins ago0x2eeaf83f24d678ab3e1ef89a25600446689f9220OUT 0x58b699642f2a4b91dd10800ef852427b719db1f00 AVAX0.004900064 26
0x0d1e536183574c0865311ecca98e8620d7b030617a0f121b187c6a5c9c1b7f1c0x0ee474c4169728702022-07-06 12:46:511 day 55 mins ago0x2eeaf83f24d678ab3e1ef89a25600446689f9220OUT 0x58b699642f2a4b91dd10800ef852427b719db1f00 AVAX0.00759577 26
0xa8fc0dfedd615309eff2bdae369967813ae29e374e3cf4a11dac40c52b8d2b160x0ee474c4169693622022-07-06 10:48:581 day 2 hrs ago0x2eeaf83f24d678ab3e1ef89a25600446689f9220OUT 0x58b699642f2a4b91dd10800ef852427b719db1f00 AVAX0.004899856 26
0x456a6defbfc2ce3b48a93b2fcf536d39475fa1d64d2f81eda26da58798a5be8d0x0ee474c4169689042022-07-06 10:33:351 day 3 hrs ago0x2eeaf83f24d678ab3e1ef89a25600446689f9220OUT 0x58b699642f2a4b91dd10800ef852427b719db1f00 AVAX0.004900064 26
0xc8b023c8dd8cadcc001fba38ec6dccc106f46dba783b3ae15358fca87dbe60680x0ee474c4169685912022-07-06 10:23:071 day 3 hrs ago0x2eeaf83f24d678ab3e1ef89a25600446689f9220OUT 0x58b699642f2a4b91dd10800ef852427b719db1f00 AVAX0.004645212 26
0x7529c95fe23d3b5358a078675e0329314c957acd51f2a5bb0eddfbe45eeb04d20xc9c57959169675292022-07-06 9:47:181 day 3 hrs ago0x2eeaf83f24d678ab3e1ef89a25600446689f9220OUT 0x58b699642f2a4b91dd10800ef852427b719db1f00 AVAX0.002251236 26
0x71121e2091e4c33fd473945e532dbd7eb3986d96aba145769cfd38aac13a79ff0x0ee474c4169638742022-07-06 7:44:511 day 5 hrs ago0x2eeaf83f24d678ab3e1ef89a25600446689f9220OUT 0x58b699642f2a4b91dd10800ef852427b719db1f00 AVAX0.008378474 26
0x52a9ba27492042d4cf4f8584d2e3fabfed146853fc5534a325c41c678a47432a0xc9c57959169603202022-07-06 5:46:051 day 7 hrs ago0x2eeaf83f24d678ab3e1ef89a25600446689f9220OUT 0x58b699642f2a4b91dd10800ef852427b719db1f00 AVAX0.005164172 26
0x4bed87f3d3d36cd020c7de78806c2a9e01d330d00e44b031cde2b852ce9857fe0x0ee474c4169591052022-07-06 5:05:201 day 8 hrs ago0x2eeaf83f24d678ab3e1ef89a25600446689f9220OUT 0x58b699642f2a4b91dd10800ef852427b719db1f00 AVAX0.007596394 26
[ Download CSV Export 
Latest 5 internal transactions
Parent Txn Hash Block From To Value
0xe78221b5fd58f66e4def4cae37521c0b9255286b9f78209a6d282e0497579cc7166803162022-06-29 17:37:517 days 20 hrs ago Trader Joe: Router0x2eeaf83f24d678ab3e1ef89a25600446689f92200.848178993307990763 AVAX
0x75a47d1dfce85d5e390f73a10ab3566ad0c8f3f3606a567776848d1f68570853158883302022-06-11 12:01:3426 days 1 hr ago Trader Joe: Router0x2eeaf83f24d678ab3e1ef89a25600446689f92200.282661210363447573 AVAX
0xe319b204b33ed541459d608826233d28fe3abce075adc233d7e5ad34a3f08a17158632412022-06-10 22:02:5426 days 15 hrs ago Trader Joe: Router0x2eeaf83f24d678ab3e1ef89a25600446689f92201.115317734422740785 AVAX
0xb83721fb186d6b12d6351e8f9a3ed5b3239c2821d71b37a523859f9ea59edfe1158422272022-06-10 10:23:2527 days 3 hrs ago Trader Joe: Router0x2eeaf83f24d678ab3e1ef89a25600446689f92200.2731900850460699 AVAX
0x39826d60f3fdf90d4f93e1ee5f0a88cb1c87f55a5e2478800e75a08ae273960f147869522022-05-16 21:31:0151 days 16 hrs ago Trader Joe: Router0x2eeaf83f24d678ab3e1ef89a25600446689f92200.325546875614417924 AVAX
[ Download CSV Export 
Loading

Contract Name:
0

Compiler Version
0

Optimization Enabled:
0

Other Settings:
-NA-
Block Transaction Gas Used Reward
Age Block Fee Address BC Fee Address Voting Power Jailed Incoming
Block Uncle Number Difficulty Gas Used Reward
Loading
Make sure to use the "Vote Down" button for any spammy posts, and the "Vote Up" for interesting conversations.